Time;durP1;ratioP1;P1;durP2;ratioP2;P2;SDS_P1;SDS_P2;PMS_P1;PMS_P2;Temp;Humidity;BMP_temperature;BMP_pressure;BME280_temperature;BME280_humidity;BME280_pressure;Samples;Min_cycle;Max_cycle;Signal;HPM_P1;HPM_P2
2024/01/13 00:01:29;;;;;;;;;;;17.10;42.60;;;;;;5074652;28;20359;-71
2024/01/13 00:03:54;;;;;;;;;;;17.10;42.50;;;;;;5074231;28;20014;-71
2024/01/13 00:06:20;;;;;;;;;;;17.10;42.50;;;;;;5074518;28;20061;-71
2024/01/13 00:08:45;;;;;;;;;;;17.10;42.60;;;;;;5074305;28;20394;-71
2024/01/13 00:11:11;;;;;;;;;;;17.10;42.60;;;;;;5074280;28;19927;-70
2024/01/13 00:13:36;;;;;;;;;;;17.10;42.60;;;;;;5074276;28;20118;-70
2024/01/13 00:16:02;;;;;;;;;;;17.00;42.50;;;;;;5092193;28;19926;-71
2024/01/13 00:18:27;;;;;;;;;;;17.10;42.60;;;;;;5074145;28;19927;-71
2024/01/13 00:20:53;;;;;;;;;;;17.10;42.60;;;;;;5092572;28;19920;-71
2024/01/13 00:23:19;;;;;;;;;;;17.10;42.60;;;;;;5074725;28;20306;-71
2024/01/13 00:25:45;;;;;;;;;;;17.10;42.60;;;;;;5074027;28;19977;-70
2024/01/13 00:28:10;;;;;;;;;;;17.10;42.60;;;;;;5092205;28;20014;-70
2024/01/13 00:30:36;;;;;;;;;;;17.00;42.60;;;;;;5074197;28;20375;-70
2024/01/13 00:33:02;;;;;;;;;;;17.00;42.60;;;;;;5092123;28;19967;-71
2024/01/13 00:35:27;;;;;;;;;;;17.00;42.50;;;;;;5073753;28;20007;-71
2024/01/13 00:37:53;;;;;;;;;;;17.00;42.50;;;;;;5074291;28;19920;-70
2024/01/13 00:40:18;;;;;;;;;;;17.00;42.60;;;;;;5074229;28;19965;-70
2024/01/13 00:42:44;;;;;;;;;;;17.00;42.60;;;;;;5092456;28;20391;-70
2024/01/13 00:45:09;;;;;;;;;;;17.00;42.60;;;;;;5074185;28;20276;-70
2024/01/13 00:47:38;;;;;;;;;;;17.00;42.60;;;;;;5074176;28;19927;-71
2024/01/13 00:50:04;;;;;;;;;;;17.00;42.60;;;;;;5092042;28;19935;-71
2024/01/13 00:52:29;;;;;;;;;;;17.00;42.60;;;;;;5094032;28;20403;-70
2024/01/13 00:54:55;;;;;;;;;;;17.00;42.60;;;;;;5077366;28;19991;-70
2024/01/13 00:57:20;;;;;;;;;;;16.90;42.50;;;;;;5077654;28;20061;-71
2024/01/13 00:59:49;;;;;;;;;;;17.00;42.60;;;;;;5077738;28;20024;-70
2024/01/13 01:02:14;;;;;;;;;;;17.00;42.60;;;;;;5077280;28;20399;-70
2024/01/13 01:04:40;;;;;;;;;;;17.00;42.60;;;;;;5077801;28;19946;-70
2024/01/13 01:07:08;;;;;;;;;;;17.00;42.60;;;;;;5095614;28;19927;-71
2024/01/13 01:09:34;;;;;;;;;;;16.90;42.60;;;;;;5077678;28;19926;-70
2024/01/13 01:11:59;;;;;;;;;;;16.90;42.60;;;;;;5095502;28;19920;-70
2024/01/13 01:14:25;;;;;;;;;;;16.90;42.60;;;;;;5095525;28;20480;-70
2024/01/13 01:16:50;;;;;;;;;;;16.90;42.50;;;;;;5077297;28;19927;-71
2024/01/13 01:19:16;;;;;;;;;;;16.90;42.50;;;;;;5077504;28;19924;-71
2024/01/13 01:21:41;;;;;;;;;;;16.90;42.60;;;;;;5095503;28;20332;-71
2024/01/13 01:24:07;;;;;;;;;;;16.90;42.50;;;;;;5077298;28;19946;-70
2024/01/13 01:26:32;;;;;;;;;;;16.90;42.60;;;;;;5095360;28;19924;-70
2024/01/13 01:28:58;;;;;;;;;;;16.90;42.60;;;;;;5077514;28;19920;-70
2024/01/13 01:31:23;;;;;;;;;;;16.90;42.50;;;;;;5077383;28;19924;-70
2024/01/13 01:33:49;;;;;;;;;;;16.90;42.60;;;;;;5076965;28;20379;-70
2024/01/13 01:36:14;;;;;;;;;;;16.90;42.60;;;;;;5077190;28;19932;-71
2024/01/13 01:38:40;;;;;;;;;;;16.90;43.40;;;;;;5095137;28;20325;-70
2024/01/13 01:41:06;;;;;;;;;;;16.90;42.60;;;;;;5077129;28;19920;-70
2024/01/13 01:43:31;;;;;;;;;;;16.90;42.60;;;;;;5077017;28;20418;-71
2024/01/13 01:45:59;;;;;;;;;;;16.80;42.60;;;;;;5076937;28;19927;-70
2024/01/13 01:48:27;;;;;;;;;;;16.80;42.60;;;;;;5094689;28;19924;-70
2024/01/13 01:50:53;;;;;;;;;;;16.80;42.60;;;;;;5076654;28;19927;-70
2024/01/13 01:53:19;;;;;;;;;;;16.80;42.60;;;;;;5094365;28;19924;-70
2024/01/13 01:55:44;;;;;;;;;;;16.80;42.60;;;;;;5076565;28;20383;-70
2024/01/13 01:58:10;;;;;;;;;;;16.80;42.60;;;;;;5076378;28;19965;-70
2024/01/13 02:00:39;;;;;;;;;;;16.80;42.60;;;;;;5076843;28;19920;-70
2024/01/13 02:03:05;;;;;;;;;;;16.70;42.60;;;;;;5093922;28;20305;-70
2024/01/13 02:05:31;;;;;;;;;;;16.80;43.40;;;;;;5076721;28;20015;-70
2024/01/13 02:07:57;;;;;;;;;;;16.80;42.70;;;;;;5076573;28;19920;-70
2024/01/13 02:10:22;;;;;;;;;;;16.80;42.70;;;;;;5094548;28;20278;-71
2024/01/13 02:12:48;;;;;;;;;;;16.80;42.60;;;;;;5094225;28;19920;-70
2024/01/13 02:15:13;;;;;;;;;;;16.80;42.60;;;;;;5076214;28;19921;-70
2024/01/13 02:17:39;;;;;;;;;;;16.80;42.60;;;;;;5076519;28;20025;-71
2024/01/13 02:20:06;;;;;;;;;;;16.80;42.60;;;;;;5076308;28;19928;-71
2024/01/13 02:22:41;;;;;;;;;;;16.70;42.60;;;;;;5076419;28;20252;-70
2024/01/13 02:25:07;;;;;;;;;;;16.70;42.60;;;;;;5094174;28;20290;-70
2024/01/13 02:27:32;;;;;;;;;;;16.70;42.60;;;;;;5076414;28;19920;-71
2024/01/13 02:29:58;;;;;;;;;;;16.70;42.60;;;;;;5094049;28;19942;-70
2024/01/13 02:32:23;;;;;;;;;;;16.70;42.70;;;;;;5093960;28;20431;-70
2024/01/13 02:34:51;;;;;;;;;;;16.70;42.70;;;;;;5075646;28;19931;-70
2024/01/13 02:37:17;;;;;;;;;;;16.70;42.60;;;;;;5076301;28;19920;-70
2024/01/13 02:39:43;;;;;;;;;;;16.70;42.70;;;;;;5093947;28;20284;-70
2024/01/13 02:42:08;;;;;;;;;;;16.70;42.60;;;;;;5093874;28;19920;-70
2024/01/13 02:44:34;;;;;;;;;;;16.70;42.70;;;;;;5075592;28;20085;-70
2024/01/13 02:46:59;;;;;;;;;;;16.70;42.70;;;;;;5075552;28;19920;-70
2024/01/13 02:49:25;;;;;;;;;;;16.70;42.70;;;;;;5075765;28;19920;-70
2024/01/13 02:51:50;;;;;;;;;;;16.70;42.70;;;;;;5075192;28;19931;-70
2024/01/13 02:54:16;;;;;;;;;;;16.70;42.70;;;;;;5075285;28;20027;-70
2024/01/13 02:56:41;;;;;;;;;;;16.60;42.60;;;;;;5075388;28;19949;-70
2024/01/13 02:59:07;;;;;;;;;;;16.70;42.70;;;;;;5075557;28;19920;-70
2024/01/13 03:01:33;;;;;;;;;;;16.70;42.70;;;;;;5075268;28;20287;-70
2024/01/13 03:04:02;;;;;;;;;;;16.60;42.70;;;;;;5075470;28;19965;-70
2024/01/13 03:06:28;;;;;;;;;;;16.60;42.70;;;;;;5093305;28;19920;-72
2024/01/13 03:08:54;;;;;;;;;;;16.60;42.70;;;;;;5075099;28;19920;-70
2024/01/13 03:11:19;;;;;;;;;;;16.60;42.70;;;;;;5075098;28;19920;-70
2024/01/13 03:13:45;;;;;;;;;;;16.60;42.70;;;;;;5074714;28;19932;-71
2024/01/13 03:16:11;;;;;;;;;;;16.60;42.70;;;;;;5092834;28;20282;-70
2024/01/13 03:18:36;;;;;;;;;;;16.60;42.70;;;;;;5074922;28;19927;-71
2024/01/13 03:21:04;;;;;;;;;;;16.60;42.70;;;;;;5074710;28;20175;-71
2024/01/13 03:23:29;;;;;;;;;;;16.60;42.70;;;;;;5074911;28;20367;-70
2024/01/13 03:25:55;;;;;;;;;;;16.60;43.50;;;;;;5075028;28;19931;-70
2024/01/13 03:28:21;;;;;;;;;;;16.60;42.80;;;;;;5093075;28;19982;-70
2024/01/13 03:30:46;;;;;;;;;;;16.60;42.80;;;;;;5074631;28;19920;-70
2024/01/13 03:33:12;;;;;;;;;;;16.50;42.80;;;;;;5092720;28;19924;-70
2024/01/13 03:35:40;;;;;;;;;;;16.50;42.80;;;;;;5092654;28;19938;-70
2024/01/13 03:38:06;;;;;;;;;;;16.50;42.80;;;;;;5092976;28;19920;-71
2024/01/13 03:40:31;;;;;;;;;;;16.50;42.80;;;;;;5074795;28;20387;-70
2024/01/13 03:42:57;;;;;;;;;;;16.50;42.80;;;;;;5074958;28;20274;-70
2024/01/13 03:45:22;;;;;;;;;;;16.50;42.80;;;;;;5074789;28;19927;-70
2024/01/13 03:47:48;;;;;;;;;;;16.50;43.50;;;;;;5092751;28;19920;-70
2024/01/13 03:50:14;;;;;;;;;;;16.50;42.80;;;;;;5074403;28;19927;-70
2024/01/13 03:52:40;;;;;;;;;;;16.50;42.80;;;;;;5092302;28;20002;-71
2024/01/13 03:55:05;;;;;;;;;;;16.40;42.80;;;;;;5092594;28;20015;-70
2024/01/13 03:57:31;;;;;;;;;;;16.50;42.80;;;;;;5074606;28;19959;-70
2024/01/13 03:59:57;;;;;;;;;;;16.50;42.80;;;;;;5074326;28;19920;-71
2024/01/13 04:02:22;;;;;;;;;;;16.50;42.80;;;;;;5074653;28;19965;-70
2024/01/13 04:04:51;;;;;;;;;;;16.50;42.80;;;;;;5074606;28;20334;-70
2024/01/13 04:07:19;;;;;;;;;;;16.50;42.80;;;;;;5074622;28;19924;-70
2024/01/13 04:09:45;;;;;;;;;;;16.40;42.80;;;;;;5074313;28;19923;-70
2024/01/13 04:12:10;;;;;;;;;;;16.50;42.90;;;;;;5092494;28;19966;-70
2024/01/13 04:14:36;;;;;;;;;;;16.50;42.90;;;;;;5074217;28;19930;-71
2024/01/13 04:17:01;;;;;;;;;;;16.40;42.80;;;;;;5074369;28;20019;-71
2024/01/13 04:19:27;;;;;;;;;;;16.40;42.80;;;;;;5074357;28;19920;-71
2024/01/13 04:21:52;;;;;;;;;;;16.40;42.80;;;;;;5074078;28;19990;-70
2024/01/13 04:24:18;;;;;;;;;;;16.40;42.80;;;;;;5074587;28;19924;-71
2024/01/13 04:26:44;;;;;;;;;;;16.40;42.80;;;;;;5095004;28;19950;-70
2024/01/13 04:29:09;;;;;;;;;;;16.40;42.80;;;;;;5096437;28;19920;-70
2024/01/13 04:31:35;;;;;;;;;;;16.40;42.90;;;;;;5078498;28;20398;-71
2024/01/13 04:34:00;;;;;;;;;;;16.40;42.80;;;;;;5096165;28;19924;-70
2024/01/13 04:36:26;;;;;;;;;;;16.40;42.80;;;;;;5078071;28;19924;-70
2024/01/13 04:38:52;;;;;;;;;;;16.40;42.80;;;;;;5077932;28;20263;-70
2024/01/13 04:41:17;;;;;;;;;;;16.40;42.80;;;;;;5096162;28;19971;-70
2024/01/13 04:43:43;;;;;;;;;;;16.40;42.80;;;;;;5077878;28;19920;-70
2024/01/13 04:46:11;;;;;;;;;;;16.40;42.80;;;;;;5077825;28;20379;-70
2024/01/13 04:48:37;;;;;;;;;;;16.40;42.80;;;;;;5077790;28;19920;-70
2024/01/13 04:51:02;;;;;;;;;;;16.40;42.80;;;;;;5095949;28;19920;-71
2024/01/13 04:53:28;;;;;;;;;;;16.40;42.80;;;;;;5059103;28;20020;-70
2024/01/13 04:55:54;;;;;;;;;;;16.40;42.80;;;;;;5075586;28;19929;-71
2024/01/13 04:58:23;;;;;;;;;;;16.40;42.80;;;;;;5075746;28;19982;-70
2024/01/13 05:00:48;;;;;;;;;;;16.40;42.90;;;;;;5057564;28;20387;-70
2024/01/13 05:03:14;;;;;;;;;;;16.40;42.80;;;;;;5057889;28;19973;-71
2024/01/13 05:05:39;;;;;;;;;;;16.40;42.80;;;;;;5057442;28;19921;-70
2024/01/13 05:08:05;;;;;;;;;;;16.30;42.80;;;;;;5057806;28;20006;-71
2024/01/13 05:10:31;;;;;;;;;;;16.40;42.80;;;;;;5057386;28;19920;-70
2024/01/13 05:12:56;;;;;;;;;;;16.30;42.80;;;;;;5057577;28;19920;-70
2024/01/13 05:15:22;;;;;;;;;;;16.30;42.80;;;;;;5075654;28;19963;-70
2024/01/13 05:17:47;;;;;;;;;;;16.40;42.90;;;;;;5057397;28;19928;-71
2024/01/13 05:20:13;;;;;;;;;;;16.30;42.80;;;;;;5057576;28;19921;-71
2024/01/13 05:22:38;;;;;;;;;;;16.30;42.90;;;;;;5057352;28;20437;-71
2024/01/13 05:25:04;;;;;;;;;;;16.30;42.80;;;;;;5057328;28;19920;-70
2024/01/13 05:27:30;;;;;;;;;;;16.30;42.80;;;;;;5057153;28;19921;-70
2024/01/13 05:29:55;;;;;;;;;;;16.30;43.60;;;;;;5056973;28;20010;-70
2024/01/13 05:32:21;;;;;;;;;;;16.30;42.80;;;;;;5057023;28;19921;-70
2024/01/13 05:34:46;;;;;;;;;;;16.30;42.80;;;;;;5056865;28;19931;-70
2024/01/13 05:37:12;;;;;;;;;;;16.30;42.90;;;;;;5056048;28;20348;-71
2024/01/13 05:39:37;;;;;;;;;;;16.30;42.90;;;;;;5056777;28;20046;-70
2024/01/13 05:42:03;;;;;;;;;;;16.30;42.90;;;;;;5056799;28;19921;-70
2024/01/13 05:44:28;;;;;;;;;;;16.30;42.80;;;;;;5056753;28;19921;-70
2024/01/13 05:46:54;;;;;;;;;;;16.20;42.80;;;;;;5074640;28;19924;-70
2024/01/13 05:49:19;;;;;;;;;;;16.20;42.80;;;;;;5056778;28;19920;-70
2024/01/13 05:51:45;;;;;;;;;;;16.30;42.80;;;;;;5060520;28;19931;-70
2024/01/13 05:54:10;;;;;;;;;;;16.30;42.80;;;;;;5094714;28;20011;-70
2024/01/13 05:56:36;;;;;;;;;;;16.30;42.90;;;;;;5094646;28;19920;-70
2024/01/13 05:59:02;;;;;;;;;;;16.30;42.90;;;;;;5076784;28;19920;-71
2024/01/13 06:01:27;;;;;;;;;;;16.20;42.80;;;;;;5094722;28;19924;-70
2024/01/13 06:03:53;;;;;;;;;;;16.20;42.90;;;;;;5076764;28;19920;-70
2024/01/13 06:06:18;;;;;;;;;;;16.30;42.90;;;;;;5076295;28;19926;-70
2024/01/13 06:08:44;;;;;;;;;;;16.20;42.90;;;;;;5094403;28;19924;-71
2024/01/13 06:11:10;;;;;;;;;;;16.20;42.90;;;;;;5076576;28;19920;-71
2024/01/13 06:13:38;;;;;;;;;;;16.20;42.90;;;;;;5076431;28;19931;-70
2024/01/13 06:16:04;;;;;;;;;;;16.20;42.90;;;;;;5094413;28;19995;-71
2024/01/13 06:18:29;;;;;;;;;;;16.20;42.90;;;;;;5094292;28;19973;-71
2024/01/13 06:20:55;;;;;;;;;;;16.20;42.90;;;;;;5076277;28;19920;-71
2024/01/13 06:23:24;;;;;;;;;;;16.20;42.90;;;;;;5076028;28;20328;-71
2024/01/13 06:25:50;;;;;;;;;;;16.20;42.90;;;;;;5076360;28;19927;-70
2024/01/13 06:28:16;;;;;;;;;;;16.20;43.70;;;;;;5075997;28;20388;-70
2024/01/13 06:30:41;;;;;;;;;;;16.20;43.00;;;;;;5075909;28;19970;-70
2024/01/13 06:33:10;;;;;;;;;;;16.20;43.00;;;;;;5094060;28;20474;-71
2024/01/13 06:35:35;;;;;;;;;;;16.20;42.90;;;;;;5075880;28;19955;-70
2024/01/13 06:38:01;;;;;;;;;;;16.10;42.90;;;;;;5093820;28;20062;-71
2024/01/13 06:40:26;;;;;;;;;;;16.10;42.90;;;;;;5075993;28;19924;-70
2024/01/13 06:42:52;;;;;;;;;;;16.10;42.90;;;;;;5093877;28;19920;-70
2024/01/13 06:45:17;;;;;;;;;;;16.20;43.00;;;;;;5093735;28;19920;-70
2024/01/13 06:47:43;;;;;;;;;;;16.10;43.00;;;;;;5093656;28;20321;-70
2024/01/13 06:50:08;;;;;;;;;;;16.10;42.90;;;;;;5093754;28;19924;-71
2024/01/13 06:52:34;;;;;;;;;;;16.10;43.00;;;;;;5075426;28;20299;-70
2024/01/13 06:55:00;;;;;;;;;;;16.10;42.90;;;;;;5075208;28;19924;-70
2024/01/13 06:57:26;;;;;;;;;;;16.10;42.90;;;;;;5075883;28;19966;-70
2024/01/13 06:59:51;;;;;;;;;;;16.10;43.00;;;;;;5075644;28;20287;-71
2024/01/13 07:02:17;;;;;;;;;;;16.10;42.90;;;;;;5075354;28;19946;-70
2024/01/13 07:04:43;;;;;;;;;;;16.10;43.00;;;;;;5075541;28;20309;-70
2024/01/13 07:07:09;;;;;;;;;;;16.10;43.00;;;;;;5075313;28;20015;-70
2024/01/13 07:09:38;;;;;;;;;;;16.10;43.00;;;;;;5075754;28;19963;-71
2024/01/13 07:12:03;;;;;;;;;;;16.10;43.00;;;;;;5075406;28;20007;-71
2024/01/13 07:14:30;;;;;;;;;;;16.10;43.00;;;;;;5074939;28;20007;-71
2024/01/13 07:16:56;;;;;;;;;;;16.10;43.80;;;;;;5075303;28;19942;-71
2024/01/13 07:19:21;;;;;;;;;;;16.00;43.70;;;;;;5074873;28;19920;-71
2024/01/13 07:21:46;;;;;;;;;;;16.00;43.00;;;;;;5075192;28;19927;-71
2024/01/13 07:24:12;;;;;;;;;;;16.00;43.10;;;;;;5093017;28;20406;-70
2024/01/13 07:26:39;;;;;;;;;;;16.00;43.00;;;;;;5074772;28;19927;-71
2024/01/13 07:29:05;;;;;;;;;;;16.00;43.00;;;;;;5093079;28;19920;-70
2024/01/13 07:31:30;;;;;;;;;;;16.00;43.10;;;;;;5093252;28;19927;-71
2024/01/13 07:33:56;;;;;;;;;;;16.00;43.10;;;;;;5092691;28;20024;-70
2024/01/13 07:36:21;;;;;;;;;;;16.30;43.10;;;;;;5075048;28;20085;-70
2024/01/13 07:38:47;;;;;;;;;;;16.60;42.60;;;;;;5074577;28;19920;-70
2024/01/13 07:41:12;;;;;;;;;;;17.20;41.90;;;;;;5074597;28;19920;-70
2024/01/13 07:43:38;;;;;;;;;;;17.50;41.20;;;;;;5074840;28;19955;-70
2024/01/13 07:46:03;;;;;;;;;;;18.00;40.50;;;;;;5074802;28;19946;-71
2024/01/13 07:48:29;;;;;;;;;;;18.70;39.90;;;;;;5074867;28;19973;-71
2024/01/13 07:50:55;;;;;;;;;;;19.40;39.10;;;;;;5074503;28;20402;-71
2024/01/13 07:53:20;;;;;;;;;;;20.00;38.20;;;;;;5074291;28;20011;-71
2024/01/13 07:55:46;;;;;;;;;;;20.70;37.20;;;;;;5074419;28;19920;-71
2024/01/13 07:58:11;;;;;;;;;;;21.30;36.50;;;;;;5074438;28;20343;-71
2024/01/13 08:00:37;;;;;;;;;;;21.90;35.70;;;;;;5074022;28;19920;-71
2024/01/13 08:03:04;;;;;;;;;;;22.30;34.90;;;;;;5092545;28;19920;-71
2024/01/13 08:05:31;;;;;;;;;;;22.70;34.30;;;;;;5092706;28;20260;-71
2024/01/13 08:07:56;;;;;;;;;;;23.00;34.00;;;;;;5074586;28;19920;-71
2024/01/13 08:10:22;;;;;;;;;;;23.20;33.90;;;;;;5074574;28;19926;-71
2024/01/13 08:12:48;;;;;;;;;;;23.30;33.40;;;;;;5074325;28;20402;-71
2024/01/13 08:15:14;;;;;;;;;;;23.40;33.20;;;;;;5074180;28;19924;-70
2024/01/13 08:17:39;;;;;;;;;;;23.30;33.00;;;;;;5074266;28;19920;-71
2024/01/13 08:20:05;;;;;;;;;;;23.30;33.20;;;;;;5074200;28;20295;-71
2024/01/13 08:22:31;;;;;;;;;;;23.20;33.20;;;;;;5074219;28;20007;-70
2024/01/13 08:24:56;;;;;;;;;;;23.00;33.20;;;;;;5092266;28;20002;-71
2024/01/13 08:27:23;;;;;;;;;;;22.90;33.30;;;;;;5074234;28;19924;-70
2024/01/13 08:29:48;;;;;;;;;;;22.70;33.30;;;;;;5074043;28;19926;-70
2024/01/13 08:32:17;;;;;;;;;;;22.60;33.70;;;;;;5074381;28;20010;-70
2024/01/13 08:34:42;;;;;;;;;;;22.50;33.90;;;;;;5074124;28;19938;-71
2024/01/13 08:37:08;;;;;;;;;;;22.20;33.90;;;;;;5074140;28;19920;-70
2024/01/13 08:39:33;;;;;;;;;;;22.10;34.20;;;;;;5074850;28;19927;-70
2024/01/13 08:41:59;;;;;;;;;;;22.00;34.40;;;;;;5091964;28;19920;-71
2024/01/13 08:44:25;;;;;;;;;;;21.80;34.40;;;;;;5074455;28;19924;-70
2024/01/13 08:46:50;;;;;;;;;;;21.70;34.70;;;;;;5074426;28;19936;-71
2024/01/13 08:49:16;;;;;;;;;;;21.50;34.80;;;;;;5074633;28;20294;-70
2024/01/13 08:51:42;;;;;;;;;;;21.50;35.10;;;;;;5073700;28;20399;-70
2024/01/13 08:54:07;;;;;;;;;;;21.20;35.20;;;;;;5091989;28;19924;-71
2024/01/13 08:56:34;;;;;;;;;;;21.10;35.30;;;;;;5092025;28;19927;-71
2024/01/13 08:59:01;;;;;;;;;;;21.00;35.50;;;;;;5091884;28;19921;-70
2024/01/13 09:01:26;;;;;;;;;;;20.80;35.60;;;;;;5092140;28;19931;-71
2024/01/13 09:03:52;;;;;;;;;;;20.70;35.80;;;;;;5074331;28;19920;-70
2024/01/13 09:06:17;;;;;;;;;;;20.60;36.00;;;;;;5073769;28;20007;-71
2024/01/13 09:08:42;;;;;;;;;;;20.50;36.20;;;;;;5092009;28;20349;-70
2024/01/13 09:11:09;;;;;;;;;;;20.40;36.30;;;;;;5092029;28;19920;-70
2024/01/13 09:13:34;;;;;;;;;;;20.30;36.40;;;;;;5075849;28;20495;-70
2024/01/13 09:16:00;;;;;;;;;;;20.20;36.60;;;;;;5077634;28;19920;-70
2024/01/13 09:18:25;;;;;;;;;;;20.10;36.70;;;;;;5095483;28;19991;-70
2024/01/13 09:20:51;;;;;;;;;;;19.90;36.80;;;;;;5077600;28;19943;-71
2024/01/13 09:23:17;;;;;;;;;;;19.90;37.00;;;;;;5095305;28;20298;-71
2024/01/13 09:25:42;;;;;;;;;;;19.80;37.00;;;;;;5095465;28;19928;-70
2024/01/13 09:28:09;;;;;;;;;;;19.60;37.10;;;;;;5077150;28;20436;-70
2024/01/13 09:30:35;;;;;;;;;;;19.60;37.30;;;;;;5077183;28;19927;-70
2024/01/13 09:33:01;;;;;;;;;;;19.50;37.40;;;;;;5077201;28;20290;-71
2024/01/13 09:35:30;;;;;;;;;;;19.40;37.50;;;;;;5077327;28;20326;-70
2024/01/13 09:37:57;;;;;;;;;;;19.30;37.60;;;;;;5077148;28;20011;-70
2024/01/13 09:40:23;;;;;;;;;;;19.20;37.60;;;;;;5077365;28;20164;-70
2024/01/13 09:42:51;;;;;;;;;;;19.10;37.80;;;;;;5076738;28;19927;-70
2024/01/13 09:45:17;;;;;;;;;;;19.10;37.90;;;;;;5076816;28;20424;-71
2024/01/13 09:47:44;;;;;;;;;;;19.00;38.00;;;;;;5095018;28;19923;-70
2024/01/13 09:50:10;;;;;;;;;;;18.90;38.10;;;;;;5076860;28;19935;-70
2024/01/13 09:52:37;;;;;;;;;;;18.80;38.20;;;;;;5076600;28;20375;-70
2024/01/13 09:55:05;;;;;;;;;;;18.70;38.30;;;;;;5094678;28;20376;-70
2024/01/13 09:57:31;;;;;;;;;;;18.70;38.40;;;;;;5094726;28;19920;-70
2024/01/13 09:59:57;;;;;;;;;;;18.60;38.50;;;;;;5094575;28;19920;-70
2024/01/13 10:02:22;;;;;;;;;;;18.50;38.60;;;;;;5094892;28;19927;-70
2024/01/13 10:04:48;;;;;;;;;;;18.40;38.80;;;;;;5094713;28;20406;-70
2024/01/13 10:07:14;;;;;;;;;;;18.30;38.90;;;;;;5076853;28;20027;-69
2024/01/13 10:09:43;;;;;;;;;;;18.20;39.00;;;;;;5076553;28;20002;-70
2024/01/13 10:12:09;;;;;;;;;;;18.10;39.20;;;;;;5076627;28;19955;-70
2024/01/13 10:14:36;;;;;;;;;;;18.00;39.30;;;;;;5094247;28;20504;-70
2024/01/13 10:17:05;;;;;;;;;;;17.90;39.50;;;;;;5076431;28;19920;-70
2024/01/13 10:19:38;;;;;;;;;;;17.80;39.70;;;;;;5076563;28;19920;-71
2024/01/13 10:22:05;;;;;;;;;;;17.70;39.80;;;;;;5094392;28;19924;-70
2024/01/13 10:24:30;;;;;;;;;;;17.70;40.00;;;;;;5075752;28;19926;-70
2024/01/13 10:26:56;;;;;;;;;;;17.50;40.10;;;;;;5076079;28;20015;-70
2024/01/13 10:29:23;;;;;;;;;;;17.50;40.30;;;;;;5094638;28;20645;-71
2024/01/13 10:31:49;;;;;;;;;;;17.40;40.40;;;;;;5076787;28;20371;-70
2024/01/13 10:34:16;;;;;;;;;;;17.30;40.60;;;;;;5075793;28;19935;-70
2024/01/13 10:36:42;;;;;;;;;;;17.20;40.70;;;;;;5076206;28;19959;-70
2024/01/13 10:39:07;;;;;;;;;;;17.10;40.80;;;;;;5075684;28;20460;-70
2024/01/13 10:41:34;;;;;;;;;;;17.10;41.00;;;;;;5076185;28;19920;-70
2024/01/13 10:44:02;;;;;;;;;;;17.00;41.10;;;;;;5075866;28;19921;-70
2024/01/13 10:46:28;;;;;;;;;;;17.00;41.30;;;;;;5075548;28;19924;-70
2024/01/13 10:48:59;;;;;;;;;;;16.90;41.40;;;;;;5075625;28;19920;-71
2024/01/13 10:54:08;;;;;;;;;;;16.80;41.50;;;;;;5110352;27;19911;-70
2024/01/13 10:56:35;;;;;;;;;;;16.70;41.60;;;;;;5109185;28;19920;-70
2024/01/13 10:59:01;;;;;;;;;;;16.70;41.70;;;;;;5109208;28;19973;-70
2024/01/13 11:01:27;;;;;;;;;;;16.70;41.90;;;;;;5108950;28;20329;-70
2024/01/13 11:03:53;;;;;;;;;;;16.60;41.90;;;;;;5109169;28;20288;-69
2024/01/13 11:06:19;;;;;;;;;;;16.60;42.00;;;;;;5108737;28;19926;-69
2024/01/13 11:08:45;;;;;;;;;;;16.50;42.00;;;;;;5109073;28;19920;-69
2024/01/13 11:11:12;;;;;;;;;;;16.50;42.10;;;;;;5109779;28;19920;-70
2024/01/13 11:13:39;;;;;;;;;;;16.50;42.10;;;;;;5110154;28;19924;-69
2024/01/13 11:16:07;;;;;;;;;;;16.50;42.30;;;;;;5108703;28;20375;-70
2024/01/13 11:18:35;;;;;;;;;;;16.50;42.20;;;;;;5142974;27;19958;-70
2024/01/13 11:21:03;;;;;;;;;;;16.40;42.20;;;;;;5108505;28;19920;-70
2024/01/13 11:23:37;;;;;;;;;;;16.40;42.20;;;;;;5109805;28;19920;-69
2024/01/13 11:26:03;;;;;;;;;;;16.40;42.30;;;;;;5108596;28;19920;-69
2024/01/13 11:28:42;;;;;;;;;;;16.40;42.40;;;;;;5109820;28;20390;-69
2024/01/13 11:31:27;;;;;;;;;;;16.40;42.40;;;;;;5109520;28;20010;-70
2024/01/13 11:33:54;;;;;;;;;;;16.30;42.40;;;;;;5142528;27;19924;-70
2024/01/13 11:36:19;;;;;;;;;;;16.30;42.30;;;;;;5109461;28;19926;-69
2024/01/13 11:38:45;;;;;;;;;;;16.40;42.40;;;;;;5109317;28;19920;-69
2024/01/13 11:41:12;;;;;;;;;;;16.40;42.40;;;;;;5108415;28;19963;-70
2024/01/13 11:43:39;;;;;;;;;;;16.30;42.40;;;;;;5108320;28;19994;-69
2024/01/13 11:46:10;;;;;;;;;;;16.30;42.40;;;;;;5108306;28;20287;-70
2024/01/13 11:51:18;;;;;;;;;;;16.30;42.50;;;;;;5110413;27;19923;-69
2024/01/13 11:53:44;;;;;;;;;;;16.30;42.50;;;;;;5109286;28;19932;-70
2024/01/13 11:56:11;;;;;;;;;;;16.30;42.50;;;;;;5109325;28;19927;-70
2024/01/13 11:58:37;;;;;;;;;;;16.30;42.50;;;;;;5108812;28;20011;-70
2024/01/13 12:01:04;;;;;;;;;;;16.20;42.50;;;;;;5109174;28;19926;-69
2024/01/13 12:03:30;;;;;;;;;;;16.20;42.50;;;;;;5109034;28;19920;-69
2024/01/13 12:05:56;;;;;;;;;;;16.20;42.60;;;;;;5109973;28;19927;-69
2024/01/13 12:08:24;;;;;;;;;;;16.20;42.60;;;;;;5108725;28;20454;-70
2024/01/13 12:10:51;;;;;;;;;;;16.20;42.60;;;;;;5109990;28;19924;-69
2024/01/13 12:13:17;;;;;;;;;;;16.20;42.60;;;;;;5108804;28;19931;-69
2024/01/13 12:15:46;;;;;;;;;;;16.20;42.60;;;;;;5109875;28;20303;-70
2024/01/13 12:18:21;;;;;;;;;;;16.20;42.70;;;;;;5108717;28;19965;-70
2024/01/13 12:20:50;;;;;;;;;;;16.10;42.70;;;;;;5108305;28;19931;-70
2024/01/13 12:23:16;;;;;;;;;;;16.10;42.70;;;;;;5108629;28;19920;-70
2024/01/13 12:25:41;;;;;;;;;;;16.10;42.70;;;;;;5108762;28;19920;-70
2024/01/13 12:28:07;;;;;;;;;;;16.10;42.70;;;;;;5108634;28;19931;-69
2024/01/13 12:30:35;;;;;;;;;;;16.10;42.70;;;;;;5109565;28;20010;-70
2024/01/13 12:33:02;;;;;;;;;;;16.10;42.70;;;;;;5109375;28;19963;-69
2024/01/13 12:35:27;;;;;;;;;;;16.10;42.70;;;;;;5108894;28;20351;-71
2024/01/13 12:37:56;;;;;;;;;;;16.20;42.70;;;;;;5108198;28;20023;-72
2024/01/13 12:40:21;;;;;;;;;;;16.20;42.70;;;;;;5108408;28;19920;-71
2024/01/13 12:42:47;;;;;;;;;;;16.20;42.70;;;;;;5109721;28;20287;-72
2024/01/13 12:45:14;;;;;;;;;;;16.10;42.70;;;;;;5107940;28;19928;-72
2024/01/13 12:47:40;;;;;;;;;;;16.40;42.70;;;;;;5107904;28;20436;-72
2024/01/13 12:50:07;;;;;;;;;;;16.90;42.20;;;;;;5119941;28;19966;-71
2024/01/13 12:52:33;;;;;;;;;;;17.40;41.40;;;;;;5129790;28;19919;-72
2024/01/13 12:54:58;;;;;;;;;;;17.80;40.80;;;;;;5129597;28;19919;-72
2024/01/13 12:57:24;;;;;;;;;;;18.30;40.20;;;;;;5129577;28;20010;-72
2024/01/13 12:59:52;;;;;;;;;;;18.80;39.60;;;;;;5129806;28;19920;-72
2024/01/13 13:02:18;;;;;;;;;;;19.50;38.70;;;;;;5099049;28;19920;-72
2024/01/13 13:04:43;;;;;;;;;;;20.00;37.90;;;;;;5097609;28;20061;-72
2024/01/13 13:07:09;;;;;;;;;;;20.70;37.00;;;;;;5097657;28;20363;-71
2024/01/13 13:09:35;;;;;;;;;;;21.20;36.50;;;;;;5115549;28;20357;-71
2024/01/13 13:12:00;;;;;;;;;;;21.70;35.60;;;;;;5115598;28;19942;-71
2024/01/13 13:14:26;;;;;;;;;;;22.10;35.00;;;;;;5097213;28;20014;-72
2024/01/13 13:16:51;;;;;;;;;;;22.40;34.50;;;;;;5115496;28;19919;-72
2024/01/13 13:19:18;;;;;;;;;;;22.70;34.30;;;;;;5115332;28;20409;-73
2024/01/13 13:21:43;;;;;;;;;;;22.90;33.70;;;;;;5097328;28;20336;-72
2024/01/13 13:24:09;;;;;;;;;;;23.10;33.40;;;;;;5097071;28;19920;-72
2024/01/13 13:26:35;;;;;;;;;;;23.20;33.30;;;;;;5115335;28;19927;-72
2024/01/13 13:29:00;;;;;;;;;;;23.20;33.20;;;;;;5097105;28;19966;-72
2024/01/13 13:31:26;;;;;;;;;;;23.20;33.20;;;;;;5097385;28;20387;-72
2024/01/13 13:33:51;;;;;;;;;;;23.00;33.10;;;;;;5097128;28;19955;-72
2024/01/13 13:36:17;;;;;;;;;;;23.00;33.30;;;;;;5114984;28;20010;-72
2024/01/13 13:38:42;;;;;;;;;;;22.90;33.30;;;;;;5096819;28;19919;-72
2024/01/13 13:41:08;;;;;;;;;;;22.80;33.40;;;;;;5097000;28;19946;-72
2024/01/13 13:43:34;;;;;;;;;;;22.60;33.50;;;;;;5097030;28;19920;-72
2024/01/13 13:46:00;;;;;;;;;;;22.40;33.60;;;;;;5114784;28;19920;-72
2024/01/13 13:48:28;;;;;;;;;;;22.30;33.90;;;;;;5103513;28;19967;-72
2024/01/13 13:50:53;;;;;;;;;;;22.10;34.00;;;;;;5077140;28;19928;-72
2024/01/13 13:53:19;;;;;;;;;;;22.00;34.10;;;;;;5096494;28;20395;-72
2024/01/13 13:55:44;;;;;;;;;;;21.90;34.40;;;;;;5096112;28;19919;-72
2024/01/13 13:58:10;;;;;;;;;;;21.80;34.40;;;;;;5076473;28;19927;-72
2024/01/13 14:00:36;;;;;;;;;;;21.60;34.60;;;;;;5076176;28;19941;-72
2024/01/13 14:03:04;;;;;;;;;;;21.50;34.90;;;;;;5075905;28;19927;-72
2024/01/13 14:05:30;;;;;;;;;;;21.30;35.10;;;;;;5076244;28;19927;-73
2024/01/13 14:07:56;;;;;;;;;;;21.20;35.30;;;;;;5094463;28;19920;-72
2024/01/13 14:10:22;;;;;;;;;;;21.00;35.40;;;;;;5094086;28;20371;-72
2024/01/13 14:12:47;;;;;;;;;;;20.90;35.60;;;;;;5075004;28;19924;-72
2024/01/13 14:15:13;;;;;;;;;;;20.80;35.80;;;;;;5076133;28;19926;-72